createdAt,value
2023-10-21T00:01:21.307Z,74.09
2023-10-21T00:03:55.304Z,73.93
2023-10-21T00:06:29.735Z,74.50
2023-10-21T00:09:03.171Z,74.42
2023-10-21T00:11:36.330Z,74.44
2023-10-21T00:14:09.419Z,74.24
2023-10-21T00:16:43.420Z,74.22
2023-10-21T00:19:16.825Z,74.08
2023-10-21T00:21:51.681Z,74.05
2023-10-21T00:24:26.741Z,74.55
2023-10-21T00:26:59.981Z,74.21
2023-10-21T00:29:33.239Z,74.02
2023-10-21T00:32:07.128Z,73.64
2023-10-21T00:34:40.745Z,73.72
2023-10-21T00:37:15.551Z,73.76
2023-10-21T00:39:48.979Z,73.84
2023-10-21T00:42:22.593Z,73.94
2023-10-21T00:44:55.999Z,73.99
2023-10-21T00:47:29.424Z,73.70
2023-10-21T00:50:04.816Z,73.64
2023-10-21T00:52:47.771Z,73.93
2023-10-21T00:55:21.245Z,73.86
2023-10-21T00:57:55.181Z,74.16
2023-10-21T01:00:28.563Z,74.00
2023-10-21T01:03:02.331Z,74.02
2023-10-21T01:05:36.002Z,73.70
2023-10-21T01:08:10.652Z,73.84
2023-10-21T01:10:44.035Z,73.59
2023-10-21T01:13:17.463Z,73.68
2023-10-21T01:15:50.805Z,74.38
2023-10-21T01:18:26.090Z,74.13
2023-10-21T01:20:59.573Z,74.26
2023-10-21T01:23:36.098Z,74.43
2023-10-21T01:26:09.710Z,74.28
2023-10-21T01:28:43.050Z,74.37
2023-10-21T01:31:16.444Z,74.36
2023-10-21T01:33:50.082Z,74.15
2023-10-21T01:36:23.478Z,74.12
2023-10-21T01:38:58.045Z,74.27
2023-10-21T01:41:31.222Z,74.27
2023-10-21T01:44:04.161Z,74.45
2023-10-21T01:46:38.139Z,74.62
2023-10-21T01:49:11.553Z,74.56
2023-10-21T01:51:45.574Z,74.09
2023-10-21T01:54:20.140Z,74.24
2023-10-21T01:56:53.721Z,74.24
2023-10-21T01:59:26.981Z,74.41
2023-10-21T02:02:00.347Z,74.09
2023-10-21T02:04:33.541Z,74.31
2023-10-21T02:07:06.944Z,74.46
2023-10-21T02:09:41.889Z,74.63
2023-10-21T02:12:15.096Z,74.23
2023-10-21T02:14:48.232Z,74.46
2023-10-21T02:17:21.572Z,74.65
2023-10-21T02:19:57.823Z,74.76
2023-10-21T02:22:31.077Z,74.71
2023-10-21T02:25:13.369Z,74.75
2023-10-21T02:27:47.462Z,74.71
2023-10-21T02:30:20.632Z,74.63
2023-10-21T02:32:53.877Z,74.63
2023-10-21T02:35:27.092Z,74.89
2023-10-21T02:38:00.567Z,74.69
2023-10-21T02:40:35.235Z,74.67
2023-10-21T02:43:08.427Z,74.71
2023-10-21T02:45:41.917Z,74.28
2023-10-21T02:48:15.769Z,74.55
2023-10-21T02:50:49.501Z,74.63
2023-10-21T02:53:22.691Z,74.81
2023-10-21T02:55:57.317Z,74.67
2023-10-21T02:58:33.322Z,75.03
2023-10-21T03:01:14.889Z,74.84
2023-10-21T03:03:49.415Z,74.53
2023-10-21T03:06:23.654Z,74.84
2023-10-21T03:08:57.025Z,74.46
2023-10-21T03:11:31.837Z,74.66
2023-10-21T03:14:05.468Z,74.61
2023-10-21T03:16:39.502Z,74.47
2023-10-21T03:19:13.104Z,74.73
2023-10-21T03:21:48.536Z,74.89
2023-10-21T03:24:21.545Z,74.55
2023-10-21T03:26:56.113Z,74.60
2023-10-21T03:29:29.293Z,74.60
2023-10-21T03:32:02.466Z,74.87
2023-10-21T03:34:35.761Z,74.78
2023-10-21T03:37:09.134Z,74.58
2023-10-21T03:39:42.804Z,74.77
2023-10-21T03:42:17.674Z,74.67
2023-10-21T03:44:50.740Z,75.03
2023-10-21T03:47:25.372Z,75.19
2023-10-21T03:49:59.579Z,74.88
2023-10-21T03:52:32.860Z,74.79
2023-10-21T03:55:07.426Z,74.67
2023-10-21T03:57:41.973Z,74.62
2023-10-21T04:00:15.577Z,75.02
2023-10-21T04:02:48.743Z,74.70
2023-10-21T04:05:22.123Z,74.99
2023-10-21T04:07:56.527Z,74.50
2023-10-21T04:10:29.968Z,75.06
2023-10-21T04:13:04.992Z,74.83
2023-10-21T04:15:39.149Z,74.55
2023-10-21T04:18:14.431Z,75.09
2023-10-21T04:20:48.364Z,75.00
2023-10-21T04:23:21.588Z,75.15
2023-10-21T04:25:54.765Z,75.03
2023-10-21T04:28:29.686Z,75.01
2023-10-21T04:31:04.031Z,75.31
2023-10-21T04:33:37.146Z,74.93
2023-10-21T04:36:10.150Z,75.10
2023-10-21T04:38:44.735Z,74.82
2023-10-21T04:41:18.061Z,74.82
2023-10-21T04:43:52.592Z,74.75
2023-10-21T04:46:26.251Z,74.40
2023-10-21T04:48:59.498Z,74.85
2023-10-21T04:51:33.185Z,74.88
2023-10-21T04:54:06.865Z,74.96
2023-10-21T04:56:40.592Z,74.48
2023-10-21T04:59:16.124Z,74.48
2023-10-21T05:01:49.084Z,74.26
2023-10-21T05:04:22.007Z,74.54
2023-10-21T05:06:55.363Z,74.76
2023-10-21T05:09:28.946Z,74.13
2023-10-21T05:12:02.224Z,73.78
2023-10-21T05:14:37.144Z,74.42
2023-10-21T05:17:10.851Z,74.40
2023-10-21T05:19:45.932Z,74.24
2023-10-21T05:22:19.432Z,74.30
2023-10-21T05:24:52.605Z,74.39
2023-10-21T05:27:25.793Z,74.55
2023-10-21T05:30:00.549Z,74.96
2023-10-21T05:32:33.901Z,74.38
2023-10-21T05:35:08.831Z,74.10
2023-10-21T05:37:42.100Z,74.14
2023-10-21T05:40:15.694Z,74.08
2023-10-21T05:42:49.518Z,74.09
2023-10-21T05:45:25.135Z,73.48
2023-10-21T05:47:58.271Z,73.97
2023-10-21T05:50:33.024Z,73.70
2023-10-21T05:53:06.509Z,73.70
2023-10-21T05:55:42.517Z,73.80
2023-10-21T05:58:15.926Z,73.40
2023-10-21T06:00:51.004Z,73.56
2023-10-21T06:03:25.692Z,73.75
2023-10-21T06:05:59.563Z,73.67
2023-10-21T06:08:32.726Z,73.93
2023-10-21T06:11:05.898Z,74.10
2023-10-21T06:13:38.964Z,74.02
2023-10-21T06:16:13.797Z,73.82
2023-10-21T06:18:47.205Z,73.47
2023-10-21T06:21:20.926Z,73.44
2023-10-21T06:23:54.898Z,73.46
2023-10-21T06:26:28.148Z,73.84
2023-10-21T06:29:01.707Z,73.67
2023-10-21T06:31:36.230Z,73.94
2023-10-21T06:34:09.773Z,73.69
2023-10-21T06:36:43.604Z,74.02
2023-10-21T06:39:16.732Z,73.84
2023-10-21T06:41:50.202Z,74.01
2023-10-21T06:44:24.783Z,73.87
2023-10-21T06:47:00.626Z,74.04
2023-10-21T06:49:34.280Z,74.35
2023-10-21T06:52:07.989Z,74.08
2023-10-21T06:54:41.086Z,74.39
2023-10-21T06:57:21.393Z,74.37
2023-10-21T06:59:55.129Z,74.78
2023-10-21T07:02:29.737Z,73.90
2023-10-21T07:05:03.010Z,74.42
2023-10-21T07:07:36.400Z,74.33
2023-10-21T07:10:11.357Z,74.26
2023-10-21T07:12:44.675Z,73.98
2023-10-21T07:15:18.229Z,74.08
2023-10-21T07:17:54.182Z,73.29
2023-10-21T07:20:27.830Z,74.23
2023-10-21T07:23:00.942Z,74.00
2023-10-21T07:25:33.746Z,73.91
2023-10-21T07:28:07.203Z,73.73
2023-10-21T07:30:40.642Z,73.69
2023-10-21T07:33:15.666Z,73.95
2023-10-21T07:35:51.380Z,73.96
2023-10-21T07:38:24.281Z,73.74
2023-10-21T07:40:57.778Z,73.88
2023-10-21T07:43:30.577Z,73.92
2023-10-21T07:46:04.256Z,73.63
2023-10-21T07:48:38.422Z,73.59
2023-10-21T07:51:11.514Z,74.02
2023-10-21T07:53:44.400Z,73.92
2023-10-21T07:56:17.656Z,73.80
2023-10-21T07:58:50.820Z,74.66
2023-10-21T08:01:23.927Z,74.84
2023-10-21T08:03:58.244Z,74.65
2023-10-21T08:06:31.813Z,75.12
2023-10-21T08:09:05.880Z,73.91
2023-10-21T08:11:39.008Z,73.52
2023-10-21T08:14:13.569Z,72.82
2023-10-21T08:16:47.476Z,73.52
2023-10-21T08:19:21.969Z,73.57
2023-10-21T08:21:55.273Z,73.44
2023-10-21T08:24:28.422Z,73.16
2023-10-21T08:27:01.674Z,73.39
2023-10-21T08:29:35.014Z,73.27
2023-10-21T08:32:08.977Z,72.51
2023-10-21T08:34:43.260Z,72.82
2023-10-21T08:37:17.176Z,72.49
2023-10-21T08:39:50.018Z,72.46
2023-10-21T08:42:32.706Z,72.49
2023-10-21T08:45:20.946Z,72.70
2023-10-21T08:47:55.445Z,72.21
2023-10-21T08:50:29.910Z,71.99
2023-10-21T08:53:03.083Z,72.12
2023-10-21T08:55:37.720Z,72.38
2023-10-21T08:58:11.919Z,72.68
2023-10-21T09:00:45.460Z,71.89
2023-10-21T09:03:18.673Z,72.38
2023-10-21T09:06:07.195Z,71.92
2023-10-21T09:08:41.916Z,71.82
2023-10-21T09:11:18.440Z,71.19
2023-10-21T09:13:53.602Z,71.52
2023-10-21T09:16:28.504Z,71.21
2023-10-21T09:19:03.873Z,70.97
2023-10-21T09:21:39.506Z,70.62
2023-10-21T09:24:14.437Z,70.35
2023-10-21T09:26:49.036Z,70.81
2023-10-21T09:29:23.755Z,70.42
2023-10-21T09:31:57.995Z,70.63
2023-10-21T09:34:33.196Z,70.26
2023-10-21T09:37:09.808Z,69.83
2023-10-21T09:39:45.864Z,69.73
2023-10-21T09:42:21.281Z,69.65
2023-10-21T09:44:56.298Z,69.70
2023-10-21T09:47:30.858Z,69.70
2023-10-21T09:50:07.443Z,69.58
2023-10-21T09:52:46.810Z,69.09
2023-10-21T09:55:25.659Z,68.93
2023-10-21T09:57:59.617Z,69.25
2023-10-21T10:00:32.681Z,68.40
2023-10-21T10:03:06.423Z,68.96
2023-10-21T10:05:40.214Z,68.52
2023-10-21T10:08:15.385Z,68.89
2023-10-21T10:10:50.542Z,69.16
2023-10-21T10:13:26.327Z,67.98
2023-10-21T10:15:59.673Z,67.73
2023-10-21T10:18:33.575Z,67.40
2023-10-21T10:21:16.068Z,67.35
2023-10-21T10:23:55.473Z,67.64
2023-10-21T10:26:37.515Z,66.48
2023-10-21T10:29:20.320Z,66.96
2023-10-21T10:32:15.395Z,67.02
2023-10-21T10:34:53.792Z,66.89
2023-10-21T10:37:32.576Z,67.15
2023-10-21T10:40:19.675Z,66.64
2023-10-21T10:42:53.494Z,67.30
2023-10-21T10:45:26.679Z,66.30
2023-10-21T10:48:01.685Z,66.78
2023-10-21T10:50:37.893Z,66.85
2023-10-21T10:53:14.991Z,67.22
2023-10-21T10:55:51.182Z,67.06
2023-10-21T10:58:28.005Z,67.17
2023-10-21T11:01:02.050Z,66.58
2023-10-21T11:03:37.091Z,66.70
2023-10-21T11:06:10.227Z,66.15
2023-10-21T11:08:44.086Z,67.21
2023-10-21T11:11:18.485Z,66.40
2023-10-21T11:13:52.073Z,67.00
2023-10-21T11:16:25.204Z,66.50
2023-10-21T11:19:01.997Z,66.13
2023-10-21T11:21:40.931Z,67.00
2023-10-21T11:24:15.652Z,66.04
2023-10-21T11:26:52.291Z,67.16
2023-10-21T11:29:25.603Z,66.75
2023-10-21T11:31:59.773Z,66.24
2023-10-21T11:34:33.963Z,65.98
2023-10-21T11:37:07.220Z,65.80
2023-10-21T11:39:42.209Z,65.28
2023-10-21T11:42:20.538Z,64.50
2023-10-21T11:44:58.102Z,64.28
2023-10-21T11:47:32.603Z,63.50
2023-10-21T11:50:10.523Z,64.34
2023-10-21T11:52:45.792Z,64.64
2023-10-21T11:55:38.444Z,63.92
2023-10-21T11:58:56.094Z,63.25
2023-10-21T12:02:01.079Z,64.56
2023-10-21T12:04:51.861Z,63.09
2023-10-21T12:07:48.127Z,63.94
2023-10-21T12:10:35.037Z,64.23
2023-10-21T12:13:40.840Z,63.09
2023-10-21T12:16:33.716Z,64.23
2023-10-21T12:19:26.657Z,64.23
2023-10-21T12:22:16.464Z,64.70
2023-10-21T12:25:07.770Z,64.43
2023-10-21T12:27:58.350Z,63.69
2023-10-21T12:31:03.752Z,63.16
2023-10-21T12:33:55.814Z,63.11
2023-10-21T12:36:34.693Z,63.49
2023-10-21T12:39:30.655Z,63.65
2023-10-21T12:42:16.767Z,64.26
2023-10-21T12:44:53.401Z,63.27
2023-10-21T12:47:28.596Z,63.39
2023-10-21T12:50:14.561Z,63.35
2023-10-21T12:52:48.902Z,63.16
2023-10-21T12:55:26.710Z,63.53
2023-10-21T12:57:59.824Z,63.57
2023-10-21T13:00:34.102Z,63.89
2023-10-21T13:03:12.461Z,64.71
2023-10-21T13:05:47.473Z,64.12
2023-10-21T13:08:20.474Z,65.44
2023-10-21T13:10:55.853Z,65.46
2023-10-21T13:13:29.955Z,64.53
2023-10-21T13:16:04.854Z,64.54
2023-10-21T13:18:37.766Z,65.01
2023-10-21T13:21:12.074Z,65.15
2023-10-21T13:23:45.172Z,65.72
2023-10-21T13:26:17.807Z,65.45
2023-10-21T13:28:50.931Z,66.10
2023-10-21T13:31:23.787Z,66.23
2023-10-21T13:33:56.720Z,65.80
2023-10-21T13:36:31.890Z,66.42
2023-10-21T13:39:09.874Z,66.55
2023-10-21T13:41:42.886Z,66.46
2023-10-21T13:44:16.268Z,66.63
2023-10-21T13:46:49.385Z,67.02
2023-10-21T13:49:22.141Z,66.71
2023-10-21T13:51:56.262Z,66.97
2023-10-21T13:54:29.133Z,67.20
2023-10-21T13:57:05.834Z,67.32
2023-10-21T13:59:38.567Z,67.37
2023-10-21T14:02:12.650Z,67.39
2023-10-21T14:04:45.663Z,67.45
2023-10-21T14:07:20.329Z,67.46
2023-10-21T14:09:53.344Z,67.59
2023-10-21T14:12:26.017Z,67.26
2023-10-21T14:15:06.841Z,67.64
2023-10-21T14:17:40.734Z,67.71
2023-10-21T14:20:13.971Z,67.74
2023-10-21T14:22:48.587Z,67.28
2023-10-21T14:25:21.877Z,67.43
2023-10-21T14:27:54.700Z,67.73
2023-10-21T14:30:28.465Z,67.38
2023-10-21T14:33:02.809Z,67.59
2023-10-21T14:35:37.053Z,67.63
2023-10-21T14:38:11.870Z,68.01
2023-10-21T14:40:46.239Z,67.55
2023-10-21T14:43:19.661Z,67.54
2023-10-21T14:45:53.058Z,67.54
2023-10-21T14:48:26.018Z,68.13
2023-10-21T14:50:58.751Z,67.82
2023-10-21T14:53:32.996Z,67.74
2023-10-21T14:56:06.872Z,67.72
2023-10-21T14:58:41.029Z,67.43
2023-10-21T15:01:14.124Z,67.59
2023-10-21T15:03:47.222Z,67.76
2023-10-21T15:06:20.995Z,68.00
2023-10-21T15:08:55.448Z,68.12
2023-10-21T15:11:29.478Z,67.85
2023-10-21T15:14:02.715Z,67.91
2023-10-21T15:16:36.978Z,68.28
2023-10-21T15:19:10.754Z,68.33
2023-10-21T15:21:43.776Z,68.27
2023-10-21T15:24:17.883Z,68.44
2023-10-21T15:26:52.454Z,68.47
2023-10-21T15:29:25.660Z,68.60
2023-10-21T15:31:59.086Z,68.51
2023-10-21T15:34:32.356Z,68.96
2023-10-21T15:37:07.390Z,68.65
2023-10-21T15:39:42.246Z,69.01
2023-10-21T15:42:15.920Z,69.33
2023-10-21T15:44:49.029Z,69.55
2023-10-21T15:47:22.630Z,69.44
2023-10-21T15:49:56.182Z,69.52
2023-10-21T15:52:29.441Z,69.62
2023-10-21T15:55:05.190Z,69.67
2023-10-21T15:57:39.863Z,70.04
2023-10-21T16:00:15.654Z,70.07
2023-10-21T16:02:50.805Z,70.01
2023-10-21T16:05:24.095Z,69.36
2023-10-21T16:07:58.486Z,70.17
2023-10-21T16:10:33.230Z,69.79
2023-10-21T16:13:06.238Z,69.71
2023-10-21T16:15:39.612Z,70.52
2023-10-21T16:18:13.586Z,70.06
2023-10-21T16:20:46.952Z,69.77
2023-10-21T16:23:20.150Z,70.12
2023-10-21T16:25:54.801Z,70.49
2023-10-21T16:28:28.125Z,70.65
2023-10-21T16:31:01.504Z,70.25
2023-10-21T16:33:35.859Z,70.58
2023-10-21T16:36:09.407Z,70.68
2023-10-21T16:38:44.518Z,70.17
2023-10-21T16:41:19.309Z,70.01
2023-10-21T16:43:54.268Z,70.08
2023-10-21T16:46:27.803Z,70.27
2023-10-21T16:49:01.473Z,70.62
2023-10-21T16:51:34.425Z,69.75
2023-10-21T16:54:08.255Z,70.14
2023-10-21T16:56:45.733Z,70.50
2023-10-21T16:59:19.041Z,70.26
2023-10-21T17:01:52.252Z,69.62
2023-10-21T17:04:27.159Z,69.82
2023-10-21T17:07:00.488Z,69.06
2023-10-21T17:09:34.326Z,68.93
2023-10-21T17:12:09.802Z,69.01
2023-10-21T17:14:43.531Z,69.65
2023-10-21T17:17:16.706Z,69.67
2023-10-21T17:19:49.815Z,69.94
2023-10-21T17:22:23.197Z,69.84
2023-10-21T17:24:56.342Z,69.95
2023-10-21T17:27:30.758Z,70.06
2023-10-21T17:30:04.324Z,69.83
2023-10-21T17:32:37.411Z,69.45
2023-10-21T17:35:10.828Z,69.63
2023-10-21T17:37:45.132Z,69.26
2023-10-21T17:40:19.914Z,69.16
2023-10-21T17:42:56.460Z,69.62
2023-10-21T17:45:29.947Z,69.66
2023-10-21T17:48:05.995Z,70.23
2023-10-21T17:50:39.557Z,69.65
2023-10-21T17:53:12.582Z,69.87
2023-10-21T17:55:45.801Z,70.54
2023-10-21T17:58:20.500Z,69.09
2023-10-21T18:00:53.913Z,69.47
2023-10-21T18:03:27.431Z,69.86
2023-10-21T18:06:00.908Z,69.92
2023-10-21T18:08:34.317Z,69.59
2023-10-21T18:11:08.114Z,69.27
2023-10-21T18:13:43.125Z,69.48
2023-10-21T18:16:18.119Z,69.53
2023-10-21T18:18:53.140Z,69.53
2023-10-21T18:21:26.400Z,69.95
2023-10-21T18:23:59.375Z,69.38
2023-10-21T18:26:32.395Z,69.52
2023-10-21T18:29:06.900Z,69.48
2023-10-21T18:31:39.938Z,70.12
2023-10-21T18:34:13.247Z,69.84
2023-10-21T18:36:46.531Z,69.93
2023-10-21T18:39:19.949Z,69.74
2023-10-21T18:41:53.313Z,69.89
2023-10-21T18:44:28.311Z,70.01
2023-10-21T18:47:02.054Z,70.03
2023-10-21T18:49:36.117Z,69.84
2023-10-21T18:52:09.556Z,69.95
2023-10-21T18:54:42.845Z,69.69
2023-10-21T18:57:16.391Z,69.62
2023-10-21T18:59:54.704Z,69.77
2023-10-21T19:02:28.625Z,69.70
2023-10-21T19:05:02.252Z,69.76
2023-10-21T19:07:35.851Z,69.86
2023-10-21T19:10:10.526Z,69.86
2023-10-21T19:12:43.743Z,69.65
2023-10-21T19:15:18.520Z,69.80
2023-10-21T19:17:51.941Z,69.88
2023-10-21T19:20:25.107Z,69.71
2023-10-21T19:22:58.248Z,69.85
2023-10-21T19:25:31.325Z,69.82
2023-10-21T19:28:04.433Z,69.91
2023-10-21T19:30:38.961Z,70.01
2023-10-21T19:33:12.581Z,69.98
2023-10-21T19:35:54.529Z,69.57
2023-10-21T19:38:28.296Z,69.67
2023-10-21T19:41:04.938Z,69.78
2023-10-21T19:43:38.743Z,69.34
2023-10-21T19:46:14.576Z,69.27
2023-10-21T19:48:47.573Z,69.45
2023-10-21T19:51:20.843Z,69.48
2023-10-21T19:53:54.299Z,69.71
2023-10-21T19:56:28.725Z,70.02
2023-10-21T19:59:01.931Z,70.26
2023-10-21T20:01:36.847Z,69.81
2023-10-21T20:04:11.905Z,69.99
2023-10-21T20:06:45.107Z,70.64
2023-10-21T20:09:18.346Z,70.14
2023-10-21T20:11:52.084Z,69.96
2023-10-21T20:14:25.704Z,70.06
2023-10-21T20:17:00.212Z,70.16
2023-10-21T20:19:33.568Z,70.54
2023-10-21T20:22:06.895Z,70.35
2023-10-21T20:24:40.466Z,70.41
2023-10-21T20:27:13.539Z,70.32
2023-10-21T20:29:46.701Z,70.12
2023-10-21T20:32:21.271Z,70.28
2023-10-21T20:34:54.326Z,70.88
2023-10-21T20:37:27.310Z,70.53
2023-10-21T20:40:00.480Z,70.33
2023-10-21T20:42:33.688Z,70.51
2023-10-21T20:45:07.826Z,70.03
2023-10-21T20:47:42.431Z,70.29
2023-10-21T20:50:17.165Z,70.15
2023-10-21T20:52:51.054Z,70.57
2023-10-21T20:55:24.866Z,70.34
2023-10-21T20:57:58.162Z,70.69
2023-10-21T21:00:31.489Z,70.42
2023-10-21T21:03:07.037Z,70.21
2023-10-21T21:05:42.093Z,70.72
2023-10-21T21:08:15.285Z,70.85
2023-10-21T21:10:50.441Z,70.77
2023-10-21T21:13:23.606Z,70.71
2023-10-21T21:15:59.645Z,71.25
2023-10-21T21:18:34.771Z,71.12
2023-10-21T21:21:07.973Z,70.62
2023-10-21T21:23:41.258Z,70.89
2023-10-21T21:26:15.178Z,71.05
2023-10-21T21:28:48.188Z,72.64
2023-10-21T21:31:21.454Z,71.98
2023-10-21T21:33:56.263Z,71.73
2023-10-21T21:36:31.755Z,72.29
2023-10-21T21:39:06.155Z,72.07
2023-10-21T21:41:39.451Z,71.74
2023-10-21T21:44:13.554Z,71.45
2023-10-21T21:46:47.029Z,71.31
2023-10-21T21:49:22.323Z,71.47
2023-10-21T21:51:55.609Z,71.72
2023-10-21T21:54:30.790Z,71.03
2023-10-21T21:57:04.728Z,71.12
2023-10-21T21:59:38.368Z,71.78
2023-10-21T22:02:11.790Z,71.56
2023-10-21T22:04:47.039Z,71.69
2023-10-21T22:07:23.075Z,72.00
2023-10-21T22:09:57.174Z,71.95
2023-10-21T22:12:30.571Z,72.02
2023-10-21T22:15:07.079Z,72.17
2023-10-21T22:17:40.717Z,71.73
2023-10-21T22:20:19.806Z,72.35
2023-10-21T22:22:54.233Z,72.22
2023-10-21T22:25:39.500Z,72.03
2023-10-21T22:28:14.218Z,71.92
2023-10-21T22:30:49.047Z,72.26
2023-10-21T22:33:22.309Z,72.17
2023-10-21T22:35:57.203Z,72.68
2023-10-21T22:38:30.358Z,72.35
2023-10-21T22:41:03.668Z,72.25
2023-10-21T22:43:36.913Z,72.38
2023-10-21T22:46:10.812Z,72.42
2023-10-21T22:48:48.129Z,72.63
2023-10-21T22:51:22.821Z,73.08
2023-10-21T22:53:56.193Z,72.27
2023-10-21T22:56:29.648Z,72.30
2023-10-21T22:59:06.190Z,72.98
2023-10-21T23:01:40.210Z,73.44
2023-10-21T23:04:13.617Z,73.29
2023-10-21T23:06:48.336Z,72.43
2023-10-21T23:09:30.009Z,72.74
2023-10-21T23:12:03.633Z,72.33
2023-10-21T23:14:37.301Z,72.77
2023-10-21T23:17:11.421Z,72.23
2023-10-21T23:19:45.308Z,73.74
2023-10-21T23:22:20.123Z,72.96
2023-10-21T23:24:54.476Z,73.06
2023-10-21T23:27:27.881Z,73.63
2023-10-21T23:30:01.113Z,74.13
2023-10-21T23:32:34.440Z,73.43
2023-10-21T23:35:09.287Z,73.40
2023-10-21T23:37:44.000Z,73.11
2023-10-21T23:40:17.662Z,73.66
2023-10-21T23:42:51.306Z,73.14
2023-10-21T23:45:24.484Z,73.00
2023-10-21T23:47:58.239Z,73.08
2023-10-21T23:50:31.832Z,72.47
2023-10-21T23:53:06.534Z,72.65
2023-10-21T23:55:40.148Z,72.45
2023-10-21T23:58:14.377Z,73.46
